Nysted, Nebraska
Current Conditions -  °F | °C
As of 6:53 PM on Saturday 25 Oct 2014 (Local Time) from KGRI Reporting Station
Clear Clear  
Wind Chill: 62°   Ceiling: Unl
Heat Index: 62°   Visibility: 10mi
Dew Point: 44°   Wind: 7mph
Humidity: 52%   Direction: 80°E
Pressure: 30.02"   Gusts: NA
Location:  41.1605°N, 98.5709°W
Report Text: KGRI 252353Z 08006KT 10SM CLR 17/07 A3002 RMK AO2 SLP167 T01670067 10244 20167 58012
Loading
Personal Weather Stations






























Interactive Weather Map
Tropical Storm Tracking
New forecast layout! Learn more

10-Day Weather Forecast

Advertisements
Track Severe Weather on mobile